Time;durP1;ratioP1;P1;durP2;ratioP2;P2;SDS_P1;SDS_P2;PMS_P1;PMS_P2;Temp;Humidity;BMP_temperature;BMP_pressure;BME280_temperature;BME280_humidity;BME280_pressure;Samples;Min_cycle;Max_cycle;Signal;HPM_P1;HPM_P2
2023/04/26 00:01:00;;;;;;;;;;;16.10;46.20;;;;;;5051608;28;19931;-66
2023/04/26 00:03:26;;;;;;;;;;;16.00;46.10;;;;;;5036012;28;19931;-67
2023/04/26 00:05:51;;;;;;;;;;;16.10;46.20;;;;;;5054005;28;19920;-66
2023/04/26 00:08:17;;;;;;;;;;;16.00;46.10;;;;;;5055045;28;19920;-66
2023/04/26 00:10:42;;;;;;;;;;;16.00;46.20;;;;;;5055150;28;20027;-67
2023/04/26 00:13:08;;;;;;;;;;;16.00;46.20;;;;;;5053805;28;19921;-67
2023/04/26 00:15:33;;;;;;;;;;;16.00;46.20;;;;;;5037279;28;19964;-66
2023/04/26 00:17:59;;;;;;;;;;;16.00;46.20;;;;;;5053980;28;19921;-71
2023/04/26 00:20:24;;;;;;;;;;;16.00;46.20;;;;;;5055000;28;20415;-66
2023/04/26 00:22:50;;;;;;;;;;;16.00;46.20;;;;;;5054837;28;19928;-66
2023/04/26 00:25:16;;;;;;;;;;;16.00;46.20;;;;;;5053562;28;19971;-66
2023/04/26 00:27:41;;;;;;;;;;;15.90;46.20;;;;;;5054974;28;20002;-66
2023/04/26 00:30:08;;;;;;;;;;;15.90;46.20;;;;;;5037237;28;20230;-66
2023/04/26 00:32:34;;;;;;;;;;;15.90;46.30;;;;;;5053679;28;19921;-67
2023/04/26 00:35:02;;;;;;;;;;;15.90;46.20;;;;;;5053333;28;19927;-72
2023/04/26 00:37:27;;;;;;;;;;;15.90;46.20;;;;;;5053550;28;20373;-67
2023/04/26 00:39:53;;;;;;;;;;;15.90;46.30;;;;;;5053287;28;19979;-66
2023/04/26 00:42:18;;;;;;;;;;;15.90;46.30;;;;;;5053477;28;20008;-66
2023/04/26 00:44:44;;;;;;;;;;;15.90;46.30;;;;;;5054696;28;20277;-66
2023/04/26 00:47:09;;;;;;;;;;;15.90;46.30;;;;;;5054490;28;19921;-67
2023/04/26 00:49:35;;;;;;;;;;;15.90;46.40;;;;;;5053358;28;20394;-66
2023/04/26 00:52:01;;;;;;;;;;;15.90;46.40;;;;;;5036993;28;19964;-66
2023/04/26 00:54:27;;;;;;;;;;;15.80;46.30;;;;;;5054393;28;20011;-67
2023/04/26 00:56:53;;;;;;;;;;;15.80;46.30;;;;;;5036438;28;19924;-66
2023/04/26 00:59:19;;;;;;;;;;;15.80;46.40;;;;;;5036336;28;19933;-66
2023/04/26 01:01:45;;;;;;;;;;;15.80;46.40;;;;;;5054352;28;20293;-67
2023/04/26 01:04:11;;;;;;;;;;;15.80;46.40;;;;;;5054105;28;19928;-66
2023/04/26 01:06:38;;;;;;;;;;;15.80;46.40;;;;;;5054064;28;20328;-67
2023/04/26 01:09:07;;;;;;;;;;;15.80;46.40;;;;;;5052626;28;19920;-67
2023/04/26 01:11:33;;;;;;;;;;;15.80;46.40;;;;;;5036080;28;19920;-67
2023/04/26 01:13:59;;;;;;;;;;;15.80;46.40;;;;;;5036284;28;19928;-67
2023/04/26 01:16:25;;;;;;;;;;;15.80;46.50;;;;;;5052880;28;19929;-66
2023/04/26 01:18:51;;;;;;;;;;;15.80;46.50;;;;;;5035969;28;19933;-67
2023/04/26 01:21:21;;;;;;;;;;;15.70;46.40;;;;;;5036242;28;20372;-67
2023/04/26 01:23:47;;;;;;;;;;;15.90;46.50;;;;;;5052654;28;19947;-67
2023/04/26 01:26:13;;;;;;;;;;;16.10;46.20;;;;;;5053786;28;20364;-66
2023/04/26 01:28:38;;;;;;;;;;;16.40;45.70;;;;;;5036113;28;19974;-67
2023/04/26 01:31:04;;;;;;;;;;;16.80;45.00;;;;;;5052281;28;19927;-67
2023/04/26 01:33:29;;;;;;;;;;;17.30;44.20;;;;;;5035943;28;19921;-72
2023/04/26 01:35:55;;;;;;;;;;;18.00;43.10;;;;;;5053307;28;19932;-66
2023/04/26 01:38:21;;;;;;;;;;;18.70;41.80;;;;;;5052441;28;19920;-67
2023/04/26 01:40:46;;;;;;;;;;;19.40;40.60;;;;;;5052392;28;19920;-66
2023/04/26 01:43:12;;;;;;;;;;;20.00;39.40;;;;;;5052100;28;20350;-66
2023/04/26 01:45:37;;;;;;;;;;;20.50;38.40;;;;;;5051989;28;19921;-66
2023/04/26 01:48:03;;;;;;;;;;;21.10;37.70;;;;;;5053377;28;19924;-66
2023/04/26 01:50:28;;;;;;;;;;;21.50;37.10;;;;;;5053179;28;20120;-67
2023/04/26 01:52:54;;;;;;;;;;;21.90;36.40;;;;;;5051869;28;19928;-67
2023/04/26 01:55:19;;;;;;;;;;;22.10;35.90;;;;;;5051433;28;19995;-66
2023/04/26 01:57:45;;;;;;;;;;;22.40;35.40;;;;;;5053084;28;19928;-66
2023/04/26 02:00:10;;;;;;;;;;;22.60;35.10;;;;;;5035055;28;19921;-66
2023/04/26 02:02:36;;;;;;;;;;;22.80;34.90;;;;;;5035404;28;19920;-67
2023/04/26 02:05:01;;;;;;;;;;;22.90;34.80;;;;;;5052914;28;19921;-67
2023/04/26 02:07:27;;;;;;;;;;;23.00;34.60;;;;;;5051678;28;19970;-66
2023/04/26 02:09:52;;;;;;;;;;;23.00;34.40;;;;;;5051818;28;19921;-66
2023/04/26 02:12:18;;;;;;;;;;;23.10;34.30;;;;;;5035150;28;19925;-66
2023/04/26 02:14:43;;;;;;;;;;;23.10;34.30;;;;;;5051506;28;19922;-66
2023/04/26 02:17:10;;;;;;;;;;;23.00;34.30;;;;;;5034747;28;19975;-66
2023/04/26 02:19:35;;;;;;;;;;;23.00;34.40;;;;;;5052673;28;19970;-66
2023/04/26 02:22:01;;;;;;;;;;;22.80;34.40;;;;;;5035063;28;19921;-67
2023/04/26 02:24:26;;;;;;;;;;;22.70;34.60;;;;;;5052629;28;19974;-67
2023/04/26 02:26:53;;;;;;;;;;;22.60;34.70;;;;;;5050769;28;20400;-66
2023/04/26 02:29:19;;;;;;;;;;;22.50;34.80;;;;;;5034869;28;19921;-66
2023/04/26 02:31:44;;;;;;;;;;;22.30;35.00;;;;;;5052460;28;19944;-66
2023/04/26 02:34:10;;;;;;;;;;;22.10;35.20;;;;;;5052505;28;20365;-66
2023/04/26 02:36:36;;;;;;;;;;;22.00;35.40;;;;;;5052195;28;19931;-66
2023/04/26 02:39:02;;;;;;;;;;;21.90;35.50;;;;;;5052370;28;19921;-66
2023/04/26 02:41:30;;;;;;;;;;;21.80;35.60;;;;;;5034683;28;19928;-66
2023/04/26 02:43:55;;;;;;;;;;;21.60;35.70;;;;;;5034499;28;19929;-66
2023/04/26 02:46:21;;;;;;;;;;;21.50;35.80;;;;;;5051039;28;19943;-66
2023/04/26 02:48:46;;;;;;;;;;;21.50;35.90;;;;;;5034773;28;19921;-66
2023/04/26 02:51:12;;;;;;;;;;;21.40;36.00;;;;;;5051274;28;19921;-67
2023/04/26 02:53:38;;;;;;;;;;;21.40;36.00;;;;;;5050923;28;20023;-66
2023/04/26 02:56:03;;;;;;;;;;;21.40;36.10;;;;;;5050591;28;19925;-67
2023/04/26 02:58:29;;;;;;;;;;;21.40;36.10;;;;;;5051130;28;20327;-66
2023/04/26 03:00:57;;;;;;;;;;;21.50;36.10;;;;;;5050937;28;20392;-66
2023/04/26 03:03:23;;;;;;;;;;;21.50;35.90;;;;;;5034225;28;19924;-66
2023/04/26 03:05:48;;;;;;;;;;;21.60;35.80;;;;;;5050888;28;19928;-66
2023/04/26 03:08:14;;;;;;;;;;;21.60;35.70;;;;;;5051136;28;19921;-67
2023/04/26 03:10:39;;;;;;;;;;;21.70;35.70;;;;;;5050829;28;19956;-66
2023/04/26 03:13:05;;;;;;;;;;;21.70;35.60;;;;;;5051910;28;19925;-67
2023/04/26 03:15:30;;;;;;;;;;;21.80;35.60;;;;;;5052004;28;19968;-67
2023/04/26 03:17:57;;;;;;;;;;;21.70;35.50;;;;;;5051978;28;19921;-67
2023/04/26 03:20:23;;;;;;;;;;;21.80;35.50;;;;;;5050750;28;19948;-67
2023/04/26 03:22:49;;;;;;;;;;;21.90;35.40;;;;;;5050689;28;20379;-67
2023/04/26 03:25:15;;;;;;;;;;;21.90;35.30;;;;;;5051984;28;19987;-67
2023/04/26 03:27:40;;;;;;;;;;;21.90;35.20;;;;;;5050896;28;19921;-66
2023/04/26 03:30:06;;;;;;;;;;;21.90;35.20;;;;;;5052201;28;19928;-67
2023/04/26 03:32:32;;;;;;;;;;;21.90;35.20;;;;;;5051925;28;19921;-66
2023/04/26 03:34:57;;;;;;;;;;;21.90;35.20;;;;;;5050781;28;19921;-67
2023/04/26 03:37:23;;;;;;;;;;;21.80;35.20;;;;;;5052719;28;19924;-66
2023/04/26 03:39:49;;;;;;;;;;;21.80;35.30;;;;;;5054728;28;20368;-66
2023/04/26 03:42:15;;;;;;;;;;;21.80;35.40;;;;;;5054473;28;19925;-67
2023/04/26 03:44:40;;;;;;;;;;;21.70;35.30;;;;;;5054263;28;19944;-66
2023/04/26 03:47:06;;;;;;;;;;;21.60;35.40;;;;;;5037697;28;19920;-66
2023/04/26 03:49:31;;;;;;;;;;;21.60;35.50;;;;;;5055482;28;19964;-66
2023/04/26 03:51:57;;;;;;;;;;;21.50;35.50;;;;;;5054299;28;19963;-67
2023/04/26 03:54:22;;;;;;;;;;;21.50;35.50;;;;;;5037237;28;19928;-66
2023/04/26 03:56:48;;;;;;;;;;;21.50;35.60;;;;;;5055386;28;20288;-66
2023/04/26 03:59:13;;;;;;;;;;;21.50;35.50;;;;;;5037408;28;20003;-66
2023/04/26 04:01:39;;;;;;;;;;;21.50;35.60;;;;;;5054298;28;20323;-66
2023/04/26 04:04:05;;;;;;;;;;;21.40;35.50;;;;;;5037735;28;19944;-67
2023/04/26 04:06:31;;;;;;;;;;;21.40;35.50;;;;;;5037342;28;20443;-67
2023/04/26 04:08:57;;;;;;;;;;;21.50;35.50;;;;;;5055186;28;19921;-66
2023/04/26 04:11:22;;;;;;;;;;;21.50;35.50;;;;;;5054153;28;20317;-67
2023/04/26 04:13:48;;;;;;;;;;;21.60;35.40;;;;;;5053787;28;20273;-67
2023/04/26 04:16:13;;;;;;;;;;;21.70;35.20;;;;;;5037178;28;19932;-67
2023/04/26 04:18:39;;;;;;;;;;;21.80;35.10;;;;;;5037398;28;19943;-67
2023/04/26 04:21:04;;;;;;;;;;;21.80;35.00;;;;;;5053881;28;20392;-67
2023/04/26 04:23:30;;;;;;;;;;;21.90;34.90;;;;;;5054864;28;19921;-67
2023/04/26 04:25:55;;;;;;;;;;;21.90;34.70;;;;;;5037195;28;20021;-67
2023/04/26 04:28:21;;;;;;;;;;;22.00;34.70;;;;;;5054930;28;19921;-67
2023/04/26 04:30:47;;;;;;;;;;;22.00;34.60;;;;;;5053678;28;19943;-66
2023/04/26 04:33:12;;;;;;;;;;;22.00;34.50;;;;;;5053747;28;19920;-67
2023/04/26 04:35:39;;;;;;;;;;;22.00;34.50;;;;;;5054527;28;19976;-67
2023/04/26 04:38:05;;;;;;;;;;;22.10;34.50;;;;;;5037094;28;20396;-67
2023/04/26 04:40:31;;;;;;;;;;;22.00;34.40;;;;;;5053283;28;20204;-66
2023/04/26 04:42:56;;;;;;;;;;;22.00;34.40;;;;;;5053556;28;19920;-66
2023/04/26 04:45:22;;;;;;;;;;;22.00;34.40;;;;;;5053151;28;19920;-66
2023/04/26 04:47:47;;;;;;;;;;;22.00;34.40;;;;;;5036890;28;19925;-67
2023/04/26 04:50:13;;;;;;;;;;;22.00;34.40;;;;;;5036479;28;19927;-67
2023/04/26 04:52:40;;;;;;;;;;;21.90;34.40;;;;;;5054439;28;19921;-67
2023/04/26 04:55:05;;;;;;;;;;;21.90;34.50;;;;;;5052889;28;20319;-67
2023/04/26 04:57:31;;;;;;;;;;;21.80;34.40;;;;;;5053216;28;20019;-67
2023/04/26 04:59:57;;;;;;;;;;;21.80;34.40;;;;;;5053279;28;20054;-66
2023/04/26 05:02:22;;;;;;;;;;;21.80;35.20;;;;;;5052929;28;19925;-66
2023/04/26 05:04:48;;;;;;;;;;;21.80;34.40;;;;;;5053279;28;19955;-67
2023/04/26 05:07:14;;;;;;;;;;;21.80;34.40;;;;;;5054025;28;19927;-67
2023/04/26 05:09:41;;;;;;;;;;;21.80;34.40;;;;;;5052863;28;19927;-67
2023/04/26 05:12:06;;;;;;;;;;;21.80;34.40;;;;;;5052956;28;19921;-67
2023/04/26 05:14:32;;;;;;;;;;;21.80;34.30;;;;;;5053990;28;19921;-67
2023/04/26 05:16:57;;;;;;;;;;;21.80;34.30;;;;;;5052497;28;19944;-67
2023/04/26 05:19:23;;;;;;;;;;;21.80;34.30;;;;;;5036010;28;19995;-67
2023/04/26 05:21:49;;;;;;;;;;;21.80;34.40;;;;;;5053969;28;19920;-67
2023/04/26 05:24:14;;;;;;;;;;;21.70;34.40;;;;;;5052820;28;19947;-69
2023/04/26 05:26:40;;;;;;;;;;;21.80;34.40;;;;;;5046343;28;19921;-68
2023/04/26 05:29:05;;;;;;;;;;;21.60;34.40;;;;;;5034081;28;19921;-65
2023/04/26 05:31:31;;;;;;;;;;;21.70;34.60;;;;;;5034350;28;19928;-65
2023/04/26 05:33:56;;;;;;;;;;;21.80;34.70;;;;;;5034610;28;20376;-66
2023/04/26 05:36:22;;;;;;;;;;;21.80;34.60;;;;;;5053086;28;19971;-65
2023/04/26 05:38:47;;;;;;;;;;;21.80;34.70;;;;;;5035039;28;20368;-69
2023/04/26 05:41:13;;;;;;;;;;;21.90;34.70;;;;;;5035048;28;19921;-67
2023/04/26 05:43:39;;;;;;;;;;;21.80;34.70;;;;;;5052827;28;19927;-67
2023/04/26 05:46:04;;;;;;;;;;;21.80;34.70;;;;;;5034893;28;20206;-67
2023/04/26 05:48:30;;;;;;;;;;;21.80;34.70;;;;;;5032993;28;20381;-66
2023/04/26 05:50:55;;;;;;;;;;;21.80;34.70;;;;;;5050664;28;20348;-66
2023/04/26 05:53:21;;;;;;;;;;;21.80;34.70;;;;;;5028501;28;19920;-66
2023/04/26 05:55:47;;;;;;;;;;;21.80;34.70;;;;;;5022044;28;20506;-66
2023/04/26 05:58:12;;;;;;;;;;;21.70;34.80;;;;;;5049659;28;19925;-66
2023/04/26 06:00:38;;;;;;;;;;;21.80;34.80;;;;;;5047221;28;19921;-66
2023/04/26 06:03:04;;;;;;;;;;;21.80;34.70;;;;;;5022113;28;20416;-65
2023/04/26 06:05:29;;;;;;;;;;;21.90;34.80;;;;;;5029536;28;20400;-68
2023/04/26 06:07:55;;;;;;;;;;;21.90;34.70;;;;;;5040677;28;19925;-70
2023/04/26 06:10:23;;;;;;;;;;;22.00;34.80;;;;;;5035114;28;19964;-70
2023/04/26 06:12:49;;;;;;;;;;;22.00;34.60;;;;;;5030651;28;19933;-70
2023/04/26 06:15:15;;;;;;;;;;;22.10;34.60;;;;;;5026893;28;19958;-71
2023/04/26 06:17:40;;;;;;;;;;;22.10;34.50;;;;;;5029331;28;19966;-71
2023/04/26 06:20:06;;;;;;;;;;;22.10;34.50;;;;;;5036377;28;19932;-65
2023/04/26 06:22:32;;;;;;;;;;;22.10;34.40;;;;;;5019191;28;19929;-64
2023/04/26 06:24:57;;;;;;;;;;;22.10;34.50;;;;;;5036958;28;19924;-64
2023/04/26 06:27:23;;;;;;;;;;;22.20;34.70;;;;;;5036688;28;20344;-65
2023/04/26 06:29:49;;;;;;;;;;;22.30;34.90;;;;;;5000225;28;19921;-64
2023/04/26 06:32:14;;;;;;;;;;;22.20;35.00;;;;;;5017414;28;19925;-66
2023/04/26 06:34:42;;;;;;;;;;;22.20;35.20;;;;;;5034171;28;19989;-66
2023/04/26 06:37:08;;;;;;;;;;;22.10;35.30;;;;;;5016562;28;20415;-67
2023/04/26 06:39:33;;;;;;;;;;;22.00;35.40;;;;;;5032082;28;19921;-67
2023/04/26 06:41:59;;;;;;;;;;;22.00;35.40;;;;;;5019402;28;20012;-67
2023/04/26 06:44:25;;;;;;;;;;;22.00;36.20;;;;;;5017862;28;20692;-68
2023/04/26 06:46:52;;;;;;;;;;;22.00;35.50;;;;;;5036031;28;19921;-67
2023/04/26 06:49:18;;;;;;;;;;;22.00;35.30;;;;;;5025482;28;20575;-66
2023/04/26 06:51:43;;;;;;;;;;;22.00;35.50;;;;;;5031146;28;19928;-67
2023/04/26 06:54:10;;;;;;;;;;;22.00;35.60;;;;;;5037702;28;20012;-67
2023/04/26 06:56:36;;;;;;;;;;;22.10;35.60;;;;;;5020465;28;19979;-66
2023/04/26 06:59:03;;;;;;;;;;;22.10;35.60;;;;;;5037471;28;19921;-66
2023/04/26 07:01:32;;;;;;;;;;;22.10;35.80;;;;;;5034296;28;19956;-66
2023/04/26 07:03:58;;;;;;;;;;;22.00;35.90;;;;;;5038263;28;19929;-69
2023/04/26 07:06:25;;;;;;;;;;;22.00;36.00;;;;;;5019863;28;19920;-69
2023/04/26 07:08:50;;;;;;;;;;;22.00;36.20;;;;;;5032190;28;19920;-70
2023/04/26 07:11:16;;;;;;;;;;;21.90;36.20;;;;;;5040843;28;19921;-69
2023/04/26 07:13:41;;;;;;;;;;;21.90;36.30;;;;;;5042598;28;19928;-69
2023/04/26 07:16:07;;;;;;;;;;;21.90;36.40;;;;;;5037699;28;19932;-72
2023/04/26 07:18:32;;;;;;;;;;;21.90;36.50;;;;;;5024368;28;19971;-70
2023/04/26 07:20:57;;;;;;;;;;;21.80;36.60;;;;;;5036727;28;20355;-69
2023/04/26 07:23:23;;;;;;;;;;;21.80;36.70;;;;;;5020572;28;19991;-70
2023/04/26 07:25:48;;;;;;;;;;;21.70;37.00;;;;;;5021360;28;20544;-66
2023/04/26 07:28:14;;;;;;;;;;;21.60;37.10;;;;;;5032616;28;19932;-66
2023/04/26 07:30:40;;;;;;;;;;;21.60;37.30;;;;;;5024115;28;20047;-65
2023/04/26 07:33:06;;;;;;;;;;;21.50;37.40;;;;;;5034882;28;19951;-65
2023/04/26 07:35:34;;;;;;;;;;;21.50;37.60;;;;;;5039560;28;19932;-65
2023/04/26 07:37:59;;;;;;;;;;;21.50;37.80;;;;;;5040517;28;19925;-66
2023/04/26 07:40:25;;;;;;;;;;;21.40;37.90;;;;;;5021065;28;19928;-65
2023/04/26 07:42:51;;;;;;;;;;;21.40;38.10;;;;;;5010827;28;19925;-66
2023/04/26 07:45:18;;;;;;;;;;;21.40;38.20;;;;;;5035497;28;20440;-66
2023/04/26 07:47:44;;;;;;;;;;;21.40;38.30;;;;;;5028515;28;19921;-64
2023/04/26 07:50:10;;;;;;;;;;;21.30;38.20;;;;;;5032481;28;19921;-68
2023/04/26 07:52:35;;;;;;;;;;;21.30;38.30;;;;;;5018019;28;19935;-67
2023/04/26 07:55:01;;;;;;;;;;;21.20;38.30;;;;;;5034104;28;19932;-67
2023/04/26 07:57:26;;;;;;;;;;;21.20;38.40;;;;;;5035219;28;20418;-66
2023/04/26 07:59:52;;;;;;;;;;;21.10;38.40;;;;;;5041697;28;19927;-67
2023/04/26 08:02:17;;;;;;;;;;;21.10;38.40;;;;;;5032281;28;20544;-66
2023/04/26 08:04:48;;;;;;;;;;;21.10;38.30;;;;;;5036929;28;19928;-66
2023/04/26 08:07:15;;;;;;;;;;;21.20;38.30;;;;;;5036708;28;19924;-66
2023/04/26 08:09:40;;;;;;;;;;;21.20;38.20;;;;;;5035899;28;19928;-66
2023/04/26 08:12:06;;;;;;;;;;;21.20;38.00;;;;;;5021639;28;19924;-66
2023/04/26 08:14:33;;;;;;;;;;;21.20;38.00;;;;;;5030952;28;19948;-66
2023/04/26 08:16:58;;;;;;;;;;;21.20;37.90;;;;;;5040736;28;19921;-65
2023/04/26 08:19:25;;;;;;;;;;;21.20;37.40;;;;;;5025329;28;19931;-67
2023/04/26 08:21:51;;;;;;;;;;;21.00;37.00;;;;;;5028158;28;19976;-67
2023/04/26 08:24:16;;;;;;;;;;;20.90;37.20;;;;;;5023998;28;19929;-66
2023/04/26 08:26:42;;;;;;;;;;;20.90;36.90;;;;;;5026319;28;19925;-67
2023/04/26 08:29:07;;;;;;;;;;;20.90;37.00;;;;;;5022379;28;19940;-67
2023/04/26 08:31:33;;;;;;;;;;;20.90;36.40;;;;;;5041967;28;20416;-67
2023/04/26 08:33:58;;;;;;;;;;;20.90;36.60;;;;;;5038137;28;20023;-66
2023/04/26 08:36:24;;;;;;;;;;;20.90;36.50;;;;;;5018662;28;20124;-65
2023/04/26 08:38:50;;;;;;;;;;;21.00;36.40;;;;;;5040574;28;20019;-65
2023/04/26 08:41:20;;;;;;;;;;;21.10;35.50;;;;;;5035660;28;20020;-68
2023/04/26 08:43:46;;;;;;;;;;;21.30;35.60;;;;;;5024314;28;20687;-71
2023/04/26 08:46:15;;;;;;;;;;;21.40;35.40;;;;;;5038938;28;19928;-68
2023/04/26 08:48:40;;;;;;;;;;;21.50;34.80;;;;;;5034986;28;20368;-71
2023/04/26 08:51:06;;;;;;;;;;;21.70;34.80;;;;;;5034862;28;19951;-67
2023/04/26 08:53:33;;;;;;;;;;;21.80;35.00;;;;;;5039107;28;20291;-70
2023/04/26 08:56:00;;;;;;;;;;;21.90;35.10;;;;;;5021979;28;19925;-72
2023/04/26 08:58:25;;;;;;;;;;;22.00;35.00;;;;;;5017541;28;19976;-68
2023/04/26 09:00:51;;;;;;;;;;;22.20;34.70;;;;;;5031679;28;19960;-70
2023/04/26 09:03:17;;;;;;;;;;;22.30;34.70;;;;;;5019263;28;19928;-69
2023/04/26 09:05:43;;;;;;;;;;;22.20;34.40;;;;;;5018237;28;19986;-68
2023/04/26 09:08:11;;;;;;;;;;;22.20;34.70;;;;;;5019895;28;21251;-66
2023/04/26 09:10:36;;;;;;;;;;;22.10;34.60;;;;;;5015678;28;20706;-66
2023/04/26 09:13:02;;;;;;;;;;;21.90;34.20;;;;;;5018739;28;19963;-66
2023/04/26 09:15:27;;;;;;;;;;;21.70;34.30;;;;;;5034153;28;20020;-65
2023/04/26 09:17:53;;;;;;;;;;;21.50;34.30;;;;;;5019839;28;20018;-65
2023/04/26 09:20:27;;;;;;;;;;;21.30;34.60;;;;;;5015749;28;20336;-65
2023/04/26 09:23:02;;;;;;;;;;;21.20;34.60;;;;;;5027148;28;19976;-65
2023/04/26 09:25:29;;;;;;;;;;;21.00;34.70;;;;;;5014734;28;20121;-66
2023/04/26 09:27:58;;;;;;;;;;;21.10;34.50;;;;;;5034546;28;20020;-69
2023/04/26 09:30:24;;;;;;;;;;;21.10;34.70;;;;;;5033362;28;20011;-68
2023/04/26 09:38:17;;;;;;;;;;;21.20;34.50;;;;;;5076441;27;19920;-67
2023/04/26 09:43:24;;;;;;;;;;;21.10;34.20;;;;;;5054337;28;19935;-67
2023/04/26 09:45:52;;;;;;;;;;;21.00;34.40;;;;;;5063355;28;20295;-66
2023/04/26 09:48:21;;;;;;;;;;;21.10;34.20;;;;;;5047222;28;20354;-66
2023/04/26 09:50:47;;;;;;;;;;;21.10;33.90;;;;;;5053102;28;20398;-66
2023/04/26 09:53:28;;;;;;;;;;;21.10;33.30;;;;;;5055529;28;20144;-66
2023/04/26 09:55:54;;;;;;;;;;;21.10;33.40;;;;;;5054641;28;19931;-67
2023/04/26 09:58:20;;;;;;;;;;;21.10;32.60;;;;;;5046593;28;19967;-67
2023/04/26 10:00:48;;;;;;;;;;;21.00;32.30;;;;;;5051921;28;19932;-66
2023/04/26 10:03:14;;;;;;;;;;;21.00;32.30;;;;;;5051594;28;20363;-66
2023/04/26 10:05:40;;;;;;;;;;;21.00;32.00;;;;;;5052751;28;19928;-67
2023/04/26 10:08:06;;;;;;;;;;;20.90;32.60;;;;;;5060342;28;20016;-71
2023/04/26 10:10:32;;;;;;;;;;;20.80;31.80;;;;;;5054973;28;20356;-66
2023/04/26 10:12:58;;;;;;;;;;;20.70;32.50;;;;;;5052375;28;19932;-65
2023/04/26 10:15:23;;;;;;;;;;;20.70;33.10;;;;;;5051272;28;19921;-64
2023/04/26 10:17:49;;;;;;;;;;;20.80;32.40;;;;;;5050274;28;20414;-65
2023/04/26 10:20:16;;;;;;;;;;;20.70;32.00;;;;;;5058355;28;19925;-66
2023/04/26 10:22:44;;;;;;;;;;;20.60;31.60;;;;;;5046821;28;19928;-66
2023/04/26 10:25:10;;;;;;;;;;;20.60;32.70;;;;;;5060169;28;20520;-65
2023/04/26 10:30:23;;;;;;;;;;;20.40;32.00;;;;;;5116229;27;19920;-66
2023/04/26 10:35:32;;;;;;;;;;;20.40;32.80;;;;;;5090040;27;19917;-67
2023/04/26 10:40:39;;;;;;;;;;;20.70;33.00;;;;;;5093728;27;19917;-67
2023/04/26 10:45:55;;;;;;;;;;;21.40;32.70;;;;;;5082594;27;19923;-68
2023/04/26 10:59:14;;;;;;;;;;;22.40;30.90;;;;;;5079211;27;20013;-67
2023/04/26 11:01:39;;;;;;;;;;;22.40;31.20;;;;;;5071071;28;20469;-66
2023/04/26 11:04:07;;;;;;;;;;;22.40;31.10;;;;;;5075356;28;20020;-67
2023/04/26 11:06:53;;;;;;;;;;;22.40;31.30;;;;;;5068431;28;19955;-67
2023/04/26 11:09:36;;;;;;;;;;;22.30;31.40;;;;;;5071790;28;20383;-67
2023/04/26 11:12:04;;;;;;;;;;;22.20;31.20;;;;;;5065579;28;19927;-67
2023/04/26 11:14:30;;;;;;;;;;;22.20;31.60;;;;;;5065913;28;19991;-67
2023/04/26 11:16:55;;;;;;;;;;;22.30;31.70;;;;;;5065423;28;20399;-66
2023/04/26 11:19:21;;;;;;;;;;;22.30;31.80;;;;;;5065749;28;20414;-67
2023/04/26 11:21:47;;;;;;;;;;;22.30;32.00;;;;;;5071030;28;19978;-67
2023/04/26 11:24:14;;;;;;;;;;;22.20;32.10;;;;;;5069285;28;19925;-67
2023/04/26 11:26:39;;;;;;;;;;;22.10;32.30;;;;;;5068011;28;19931;-67
2023/04/26 11:29:06;;;;;;;;;;;22.00;32.30;;;;;;5069074;28;19924;-67
2023/04/26 11:31:33;;;;;;;;;;;21.90;32.50;;;;;;5073799;28;19983;-67
2023/04/26 11:34:05;;;;;;;;;;;21.80;32.80;;;;;;5069293;28;20459;-66
2023/04/26 11:36:31;;;;;;;;;;;21.70;32.90;;;;;;5073042;28;19932;-68
2023/04/26 11:38:57;;;;;;;;;;;21.60;33.10;;;;;;5066939;28;19999;-66
2023/04/26 11:41:23;;;;;;;;;;;21.50;33.30;;;;;;5071757;28;20572;-69
2023/04/26 11:43:49;;;;;;;;;;;21.50;33.50;;;;;;5103064;28;19921;-67
2023/04/26 11:46:15;;;;;;;;;;;21.50;33.80;;;;;;5073093;28;19924;-65
2023/04/26 11:48:41;;;;;;;;;;;21.50;33.90;;;;;;5075581;28;19924;-67
2023/04/26 11:51:07;;;;;;;;;;;21.40;34.20;;;;;;5101486;28;20530;-66
2023/04/26 11:56:18;;;;;;;;;;;21.30;34.30;;;;;;5072066;28;19953;-66
2023/04/26 11:58:44;;;;;;;;;;;21.20;34.40;;;;;;5069351;28;19925;-70
2023/04/26 12:01:10;;;;;;;;;;;21.10;34.50;;;;;;5071726;28;19920;-73
2023/04/26 12:03:36;;;;;;;;;;;21.00;34.70;;;;;;5069508;28;20043;-69
2023/04/26 12:06:02;;;;;;;;;;;21.00;34.80;;;;;;5066901;28;20363;-67
2023/04/26 12:08:28;;;;;;;;;;;21.10;34.70;;;;;;5075036;28;20359;-65
2023/04/26 12:10:57;;;;;;;;;;;21.10;34.70;;;;;;5070456;28;20050;-72
2023/04/26 12:13:23;;;;;;;;;;;21.10;34.80;;;;;;5076074;28;19920;-68
2023/04/26 12:15:51;;;;;;;;;;;21.10;34.90;;;;;;5074376;28;19924;-67
2023/04/26 12:18:16;;;;;;;;;;;21.10;35.00;;;;;;5073008;28;20360;-67
2023/04/26 12:20:42;;;;;;;;;;;21.10;34.90;;;;;;5072237;28;19978;-67
2023/04/26 12:23:12;;;;;;;;;;;21.10;35.00;;;;;;5070683;28;19925;-67
2023/04/26 12:25:38;;;;;;;;;;;21.00;35.10;;;;;;5078067;28;19925;-67
2023/04/26 12:28:07;;;;;;;;;;;21.00;35.20;;;;;;5071695;28;20272;-67
2023/04/26 12:30:32;;;;;;;;;;;21.00;35.20;;;;;;5074211;28;20053;-66
2023/04/26 12:32:58;;;;;;;;;;;20.90;35.30;;;;;;5073442;28;20015;-67
2023/04/26 12:35:24;;;;;;;;;;;20.80;35.40;;;;;;5071175;28;20041;-66
2023/04/26 12:37:51;;;;;;;;;;;20.80;35.60;;;;;;5069866;28;19932;-70
2023/04/26 12:40:18;;;;;;;;;;;20.70;35.70;;;;;;5064730;28;19929;-67
2023/04/26 12:42:46;;;;;;;;;;;20.60;35.80;;;;;;5068424;28;20130;-66
2023/04/26 12:45:11;;;;;;;;;;;20.50;35.90;;;;;;5066728;28;19932;-67
2023/04/26 12:47:37;;;;;;;;;;;20.40;36.10;;;;;;5067834;28;19924;-73
2023/04/26 12:50:03;;;;;;;;;;;20.30;36.20;;;;;;5065602;28;19921;-67
2023/04/26 12:52:29;;;;;;;;;;;20.10;36.40;;;;;;5072468;28;20069;-67
2023/04/26 12:54:55;;;;;;;;;;;20.10;36.50;;;;;;5085446;28;20577;-66
2023/04/26 12:57:21;;;;;;;;;;;20.00;36.70;;;;;;5072835;28;20417;-66
2023/04/26 12:59:46;;;;;;;;;;;20.00;36.80;;;;;;5071435;28;20189;-74
2023/04/26 13:02:12;;;;;;;;;;;19.90;36.90;;;;;;5068058;28;20399;-69
2023/04/26 13:04:37;;;;;;;;;;;19.80;37.00;;;;;;5066808;28;19932;-67
2023/04/26 13:07:03;;;;;;;;;;;19.80;37.10;;;;;;5079243;28;19978;-67
2023/04/26 13:09:29;;;;;;;;;;;19.80;37.20;;;;;;5053376;28;19928;-66
2023/04/26 13:11:54;;;;;;;;;;;19.90;37.30;;;;;;5056021;28;19927;-68
2023/04/26 13:14:22;;;;;;;;;;;19.90;37.40;;;;;;5063194;28;19924;-66
2023/04/26 13:16:47;;;;;;;;;;;19.90;37.40;;;;;;5058938;28;20407;-65
2023/04/26 13:19:13;;;;;;;;;;;19.90;37.40;;;;;;5054871;28;20269;-64
2023/04/26 13:21:39;;;;;;;;;;;20.00;37.50;;;;;;5075422;28;19920;-73
2023/04/26 13:24:05;;;;;;;;;;;20.00;37.60;;;;;;5056610;28;19936;-66
2023/04/26 13:26:30;;;;;;;;;;;20.00;37.60;;;;;;5057305;28;20046;-70
2023/04/26 13:28:56;;;;;;;;;;;20.00;37.80;;;;;;5054175;28;20363;-68
2023/04/26 13:31:21;;;;;;;;;;;20.00;37.90;;;;;;5073853;28;19932;-73
2023/04/26 13:33:48;;;;;;;;;;;20.00;38.00;;;;;;5069633;28;19934;-74
2023/04/26 13:36:14;;;;;;;;;;;19.90;38.10;;;;;;5060534;28;20311;-68
2023/04/26 13:38:40;;;;;;;;;;;19.90;38.90;;;;;;5059813;28;19943;-67
2023/04/26 13:41:06;;;;;;;;;;;19.90;38.20;;;;;;5054021;28;19925;-74
2023/04/26 13:43:31;;;;;;;;;;;19.90;38.30;;;;;;5062784;28;19999;-67
2023/04/26 13:45:57;;;;;;;;;;;19.90;38.40;;;;;;5056207;28;20166;-79
2023/04/26 13:48:22;;;;;;;;;;;19.80;38.40;;;;;;5051971;28;19924;-72
2023/04/26 13:50:48;;;;;;;;;;;19.80;38.50;;;;;;5054699;28;19963;-67
2023/04/26 13:53:13;;;;;;;;;;;19.70;38.70;;;;;;5058674;28;19974;-67
2023/04/26 13:55:39;;;;;;;;;;;19.70;38.60;;;;;;5055753;28;20349;-66
2023/04/26 13:58:04;;;;;;;;;;;19.60;37.90;;;;;;5054374;28;19921;-66
2023/04/26 14:00:30;;;;;;;;;;;19.60;38.30;;;;;;5056628;28;19947;-66
2023/04/26 14:02:56;;;;;;;;;;;19.50;38.20;;;;;;5055362;28;20015;-69
2023/04/26 14:05:22;;;;;;;;;;;19.50;38.20;;;;;;5058850;28;20580;-76
2023/04/26 14:07:47;;;;;;;;;;;19.50;38.20;;;;;;5053422;28;19928;-68
2023/04/26 14:10:14;;;;;;;;;;;19.40;38.20;;;;;;5057832;28;19931;-67
2023/04/26 14:12:40;;;;;;;;;;;19.40;38.30;;;;;;5057128;28;19927;-67
2023/04/26 14:15:06;;;;;;;;;;;19.40;38.30;;;;;;5057257;28;19925;-68
2023/04/26 14:17:31;;;;;;;;;;;19.40;38.40;;;;;;5056834;28;19927;-68
2023/04/26 14:19:57;;;;;;;;;;;19.30;38.30;;;;;;5055781;28;19933;-68
2023/04/26 14:22:23;;;;;;;;;;;19.30;38.40;;;;;;5058724;28;19921;-69
2023/04/26 14:24:48;;;;;;;;;;;19.30;38.50;;;;;;5058250;28;19967;-69
2023/04/26 14:27:14;;;;;;;;;;;19.30;38.60;;;;;;5058200;28;20359;-69
2023/04/26 14:29:39;;;;;;;;;;;19.20;38.50;;;;;;5056796;28;20019;-68
2023/04/26 14:32:06;;;;;;;;;;;19.20;38.60;;;;;;5057963;28;19928;-68
2023/04/26 14:34:32;;;;;;;;;;;19.20;38.60;;;;;;5055265;28;19929;-68
2023/04/26 14:37:00;;;;;;;;;;;19.10;38.60;;;;;;5063023;28;19931;-68
2023/04/26 14:39:26;;;;;;;;;;;19.10;38.60;;;;;;5070983;28;19979;-68
2023/04/26 14:41:54;;;;;;;;;;;19.10;38.60;;;;;;5057367;28;19921;-68